Dniprodzerzhyns'k, Ukraine
Current Conditions -  °F | °C
As of 9:00 PM on Thursday 23 Oct 2014 (Local Time) from UKDD Reporting Station
Rain Showers Rain Showers  
Wind Chill: 22°   Ceiling: 3300
Heat Index: 34°   Visibility: 6mi
Dew Point: 30°   Wind: 22mph
Humidity: 87%   Direction: 70°ENE
Pressure: 30.12"   Gusts: NA
Location:  48.5°N, 34.61°E
Report Text: UKDD 231800Z 07010MPS 9999 -SHRA SCT012 BKN033CB 01/M01 Q1020 08210256 TEMPO 08012G17MPS 3100 -SHRA BKN015CB
Loading
Personal Weather Stations






























Interactive Weather Map
Tropical Storm Tracking
New forecast layout! Learn more

10-Day Weather Forecast

Advertisements
Track Severe Weather on mobile